Navarre, FL (32566)

5:21 AM CST on December 04, 2016 (GMT -0600)
Navarre Second Addition | | Change Station

Elev 33 ft 30.43 °N, 86.88 °W | Updated 14 minutes ago

Overcast
Overcast
66.5 °F
Feels Like 66.5 °F
N
2.0
Wind Variable Wind from NE
Gusts 16.0 mph

Today
High -- | Low -- °F
--% Chance of Precip.
Yesterday
High -- | Low -- °F
Precip. -- in
Pressure 29.97 in
Visibility 10.0 miles
Clouds Overcast 1200 ft
Dew Point 63 °F
Humidity 89%
Rainfall 0.00 in
Snow Depth Not available.
6:29 AM 4:46 PM
Waxing Crescent, 22% visible
METAR KHRT 041058Z 09009KT 10SM OVC012 17/13 A2996 RMK AO2A SLP147 T01690130 $
Pressure 29.97 in
Visibility 10.0 miles
Clouds Overcast 1200 ft
Dew Point 63 °F
Humidity 89%
Rainfall 0.00 in
Snow Depth Not available.
6:29 AM 4:46 PM
Waxing Crescent, 22% visible
METAR KHRT 041058Z 09009KT 10SM OVC012 17/13 A2996 RMK AO2A SLP147 T01690130 $

10-Day Weather Forecast

Almanac

Astronomy

Dec. 04, 2016 Rise Set
Actual Time
Civil Twilight
Nautical Twilight
Astronomical Twilight
Moon
Length of Visible Light
Length of Day
Tomorrow will be .
, % of the Moon is Illuminated

Today's Extremes

State Highs State Lows

Community

WunderPhotos

Upload Photos

1,955,593 photos uploaded!

WunderBlog® & News

Nearby

Air Quality

  Air Quality AQ Index Pollutant
Not available.

Snow Depth

Station Depth Elevation

Earthquake Activity

City Distance Mag. Time & Date
Minimum magnitude displayed is 2.5.

Coastal Water Temperatures

Place Temperature

Stations

Nearby Weather Stations

Station Location Temp. Windchill Dew Point Humidity Wind Precip. Elev Updated Type
                   

Watches & Warnings

There are currently no watches in effect.